createdAt,value
2022-09-20T00:03:56.524Z,22.23
2022-09-20T00:06:26.428Z,20.73
2022-09-20T00:08:53.275Z,18.88
2022-09-20T00:11:23.591Z,20.50
2022-09-20T00:13:53.119Z,21.60
2022-09-20T00:16:25.811Z,19.48
2022-09-20T00:18:56.445Z,20.50
2022-09-20T00:21:28.026Z,20.67
2022-09-20T00:23:58.684Z,17.55
2022-09-20T00:26:28.541Z,21.33
2022-09-20T00:28:58.756Z,23.98
2022-09-20T00:31:27.687Z,22.58
2022-09-20T00:34:17.105Z,22.48
2022-09-20T00:36:45.502Z,20.83
2022-09-20T00:39:15.491Z,23.92
2022-09-20T00:41:42.647Z,22.75
2022-09-20T00:44:47.898Z,23.58
2022-09-20T00:47:24.498Z,24.90
2022-09-20T00:52:19.640Z,23.30
2022-09-20T00:54:46.952Z,22.13
2022-09-20T00:57:13.706Z,20.92
2022-09-20T00:59:44.473Z,23.00
2022-09-20T01:02:16.769Z,23.80
2022-09-20T01:04:45.157Z,16.70
2022-09-20T01:07:15.940Z,19.00
2022-09-20T01:09:42.613Z,16.42
2022-09-20T01:12:15.077Z,14.98
2022-09-20T01:14:43.588Z,16.08
2022-09-20T01:17:11.600Z,16.77
2022-09-20T01:22:27.721Z,20.05
2022-09-20T01:30:19.965Z,24.38
2022-09-20T01:33:12.231Z,22.83
2022-09-20T01:35:41.571Z,23.42
2022-09-20T01:38:48.424Z,24.95
2022-09-20T01:41:24.619Z,22.38
2022-09-20T01:46:54.915Z,25.88
2022-09-20T01:49:59.923Z,27.52
2022-09-20T01:53:00.879Z,22.90
2022-09-20T02:15:56.285Z,27.30
2022-09-20T02:19:02.125Z,27.08
2022-09-20T02:21:39.425Z,29.33
2022-09-20T02:24:37.918Z,28.30
2022-09-20T02:27:30.742Z,26.55
2022-09-20T02:35:30.208Z,22.55
2022-09-20T02:43:26.356Z,19.65
2022-09-20T02:48:38.222Z,24.27
2022-09-20T02:51:20.311Z,23.45
2022-09-20T03:02:32.051Z,29.90
2022-09-20T03:08:17.633Z,18.90
2022-09-20T03:16:57.724Z,16.27
2022-09-20T03:39:40.147Z,15.63
2022-09-20T03:56:39.836Z,19.50
2022-09-20T03:59:37.450Z,18.55
2022-09-20T04:02:24.959Z,17.02
2022-09-20T04:10:51.640Z,17.55
2022-09-20T04:13:35.727Z,16.35
2022-09-20T04:19:06.843Z,18.67
2022-09-20T04:24:21.385Z,17.50
2022-09-20T04:26:52.442Z,17.77
2022-09-20T04:29:32.523Z,16.25
2022-09-20T04:32:28.238Z,16.58
2022-09-20T04:37:39.719Z,16.17
2022-09-20T04:43:37.803Z,17.77
2022-09-20T05:00:24.399Z,14.73
2022-09-20T05:17:41.536Z,13.95
2022-09-20T05:23:25.630Z,13.68
2022-09-20T05:29:10.146Z,14.27
2022-09-20T05:31:52.910Z,16.00
2022-09-20T05:34:44.928Z,16.80
2022-09-20T05:40:06.468Z,19.08
2022-09-20T05:42:42.160Z,15.80
2022-09-20T05:45:40.727Z,14.35
2022-09-20T05:48:18.025Z,15.18
2022-09-20T06:09:58.178Z,14.27
2022-09-20T06:13:04.716Z,15.68
2022-09-20T06:23:28.388Z,14.57
2022-09-20T06:28:35.203Z,16.67
2022-09-20T06:31:06.073Z,15.38
2022-09-20T06:33:33.192Z,14.90
2022-09-20T06:36:49.508Z,17.02
2022-09-20T06:40:07.138Z,17.45
2022-09-20T06:42:33.696Z,16.77
2022-09-20T06:45:00.328Z,19.00
2022-09-20T06:47:27.102Z,18.92
2022-09-20T06:49:53.773Z,20.65
2022-09-20T06:52:23.021Z,22.80
2022-09-20T06:54:53.985Z,18.80
2022-09-20T06:57:38.450Z,21.50
2022-09-20T07:00:07.000Z,17.55
2022-09-20T07:02:33.657Z,20.13
2022-09-20T07:05:00.307Z,20.33
2022-09-20T07:07:27.023Z,25.10
2022-09-20T07:09:53.614Z,20.92
2022-09-20T07:12:21.224Z,23.60
2022-09-20T07:14:47.869Z,20.52
2022-09-20T07:17:14.767Z,19.77
2022-09-20T07:19:41.430Z,21.33
2022-09-20T07:22:07.999Z,23.60
2022-09-20T07:24:34.847Z,23.58
2022-09-20T07:27:04.309Z,20.23
2022-09-20T07:29:31.583Z,20.02
2022-09-20T07:31:58.801Z,18.55
2022-09-20T07:34:25.740Z,20.55
2022-09-20T07:36:52.375Z,17.20
2022-09-20T07:39:19.071Z,17.73
2022-09-20T07:41:48.556Z,19.17
2022-09-20T07:44:31.159Z,20.65
2022-09-20T07:46:59.405Z,20.77
2022-09-20T07:49:28.710Z,18.25
2022-09-20T07:51:55.304Z,21.50
2022-09-20T07:54:21.869Z,20.05
2022-09-20T07:56:48.997Z,18.30
2022-09-20T07:59:16.124Z,22.38
2022-09-20T08:01:43.117Z,18.77
2022-09-20T08:04:10.962Z,17.05
2022-09-20T08:06:40.480Z,16.92
2022-09-20T08:09:11.161Z,17.55
2022-09-20T08:11:39.800Z,20.60
2022-09-20T08:14:08.849Z,18.98
2022-09-20T08:16:40.143Z,18.48
2022-09-20T08:19:07.512Z,20.10
2022-09-20T08:21:35.787Z,16.85
2022-09-20T08:24:04.068Z,16.85
2022-09-20T08:26:31.673Z,15.27
2022-09-20T08:28:59.924Z,14.63
2022-09-20T08:31:31.486Z,16.50
2022-09-20T08:33:59.237Z,14.50
2022-09-20T08:36:26.464Z,14.10
2022-09-20T08:41:46.632Z,13.48
2022-09-20T08:47:04.449Z,12.00
2022-09-20T08:49:31.384Z,14.52
2022-09-20T08:52:03.532Z,12.43
2022-09-20T08:54:33.535Z,10.00
2022-09-20T08:57:10.860Z,12.50
2022-09-20T08:59:37.428Z,9.85
2022-09-20T09:02:09.476Z,10.45
2022-09-20T09:04:36.537Z,9.50
2022-09-20T09:07:04.297Z,12.35
2022-09-20T09:09:37.639Z,9.13
2022-09-20T09:12:05.188Z,10.35
2022-09-20T09:14:54.835Z,15.20
2022-09-20T09:17:27.585Z,8.90
2022-09-20T09:19:56.709Z,10.07
2022-09-20T09:22:32.208Z,9.65
2022-09-20T09:30:38.121Z,7.97
2022-09-20T09:38:39.201Z,8.02
2022-09-20T09:41:26.162Z,8.10
2022-09-20T09:46:40.792Z,9.32
2022-09-20T09:49:26.469Z,9.10
2022-09-20T09:54:39.132Z,8.18
2022-09-20T10:00:17.389Z,7.75
2022-09-20T10:11:17.995Z,6.07
2022-09-20T10:22:18.544Z,6.43
2022-09-20T10:27:57.482Z,4.47
2022-09-20T10:30:31.985Z,5.63
2022-09-20T10:41:53.829Z,5.85
2022-09-20T10:47:20.371Z,5.38
2022-09-20T10:50:15.760Z,6.75
2022-09-20T10:53:09.199Z,5.68
2022-09-20T10:56:15.754Z,5.55
2022-09-20T11:09:32.418Z,4.90
2022-09-20T11:12:12.492Z,6.20
2022-09-20T11:14:51.092Z,6.85
2022-09-20T11:17:26.979Z,7.10
2022-09-20T11:20:31.622Z,3.78
2022-09-20T11:25:48.572Z,5.50
2022-09-20T11:28:44.885Z,4.18
2022-09-20T11:33:56.453Z,6.32
2022-09-20T11:36:34.272Z,6.93
2022-09-20T11:41:38.100Z,5.70
2022-09-20T11:44:10.051Z,4.82
2022-09-20T11:46:42.397Z,5.13
2022-09-20T11:49:19.141Z,4.47
2022-09-20T11:57:15.789Z,4.35
2022-09-20T11:59:51.039Z,4.50
2022-09-20T12:02:30.184Z,6.55
2022-09-20T12:04:57.685Z,5.10
2022-09-20T12:07:43.735Z,3.80
2022-09-20T12:10:28.788Z,4.78
2022-09-20T12:12:59.582Z,6.82
2022-09-20T12:18:09.615Z,4.53
2022-09-20T12:26:38.426Z,3.40
2022-09-20T12:32:02.706Z,2.63
2022-09-20T12:34:36.278Z,3.38
2022-09-20T12:39:50.106Z,3.95
2022-09-20T12:42:28.924Z,3.40
2022-09-20T12:45:01.469Z,4.25
2022-09-20T12:47:32.201Z,3.55
2022-09-20T12:50:21.509Z,4.68
2022-09-20T12:53:07.951Z,5.93
2022-09-20T12:55:43.902Z,3.90
2022-09-20T13:11:24.277Z,2.58
2022-09-20T13:13:58.217Z,2.63
2022-09-20T13:25:02.872Z,2.90
2022-09-20T13:27:34.617Z,3.13
2022-09-20T13:32:47.102Z,2.67
2022-09-20T13:35:19.104Z,2.13
2022-09-20T13:43:22.563Z,4.20
2022-09-20T13:45:56.279Z,3.05
2022-09-20T13:48:27.700Z,3.58
2022-09-20T13:50:55.152Z,2.45
2022-09-20T13:53:40.613Z,2.15
2022-09-20T13:58:53.807Z,2.33
2022-09-20T14:01:27.870Z,1.73
2022-09-20T14:03:55.205Z,2.22
2022-09-20T14:06:28.258Z,2.28
2022-09-20T14:08:56.080Z,2.70
2022-09-20T14:11:25.505Z,2.28
2022-09-20T14:13:54.887Z,3.45
2022-09-20T14:16:24.782Z,3.22
2022-09-20T14:18:52.279Z,2.13
2022-09-20T14:21:24.203Z,2.75
2022-09-20T14:26:33.606Z,2.78
2022-09-20T14:29:29.650Z,2.55
2022-09-20T14:31:57.894Z,2.05
2022-09-20T14:34:24.537Z,2.92
2022-09-20T14:36:51.347Z,3.15
2022-09-20T14:39:19.186Z,2.67
2022-09-20T14:41:46.633Z,1.90
2022-09-20T14:44:33.783Z,4.45
2022-09-20T14:47:13.072Z,2.60
2022-09-20T14:49:43.339Z,2.40
2022-09-20T14:57:39.879Z,3.42
2022-09-20T15:00:15.941Z,2.35
2022-09-20T15:05:20.631Z,20.77
2022-09-20T15:07:47.751Z,11.45
2022-09-20T15:10:15.348Z,6.00
2022-09-20T15:12:43.017Z,3.33
2022-09-20T15:15:17.559Z,2.13
2022-09-20T15:17:45.635Z,2.50
2022-09-20T15:20:18.686Z,3.28
2022-09-20T15:22:50.280Z,6.82
2022-09-20T15:25:19.372Z,5.25
2022-09-20T15:27:46.625Z,3.15
2022-09-20T15:30:17.059Z,3.50
2022-09-20T15:32:44.628Z,2.72
2022-09-20T15:35:11.895Z,2.00
2022-09-20T15:37:38.649Z,3.17
2022-09-20T15:40:06.838Z,4.15
2022-09-20T15:42:37.945Z,2.55
2022-09-20T15:45:08.992Z,2.90
2022-09-20T15:47:37.620Z,2.88
2022-09-20T15:50:07.529Z,2.67
2022-09-20T15:52:36.779Z,2.58
2022-09-20T15:55:04.210Z,2.47
2022-09-20T15:57:32.011Z,1.48
2022-09-20T15:59:59.495Z,3.42
2022-09-20T16:02:27.024Z,2.55
2022-09-20T16:04:55.897Z,2.10
2022-09-20T16:07:25.738Z,2.58
2022-09-20T16:09:54.369Z,2.83
2022-09-20T16:12:23.116Z,1.33
2022-09-20T16:14:50.097Z,2.38
2022-09-20T16:17:17.797Z,2.92
2022-09-20T16:19:46.426Z,2.25
2022-09-20T16:22:13.019Z,5.00
2022-09-20T16:24:39.606Z,1.52
2022-09-20T16:27:08.510Z,2.50
2022-09-20T16:29:35.101Z,2.40
2022-09-20T16:32:03.715Z,3.17
2022-09-20T16:34:32.811Z,3.28
2022-09-20T16:37:01.925Z,5.30
2022-09-20T16:39:30.423Z,2.30
2022-09-20T16:42:03.580Z,2.78
2022-09-20T16:44:31.976Z,1.92
2022-09-20T16:46:58.537Z,2.65
2022-09-20T16:49:28.839Z,1.50
2022-09-20T16:51:56.090Z,9.32
2022-09-20T16:54:22.953Z,2.70
2022-09-20T16:56:51.209Z,1.70
2022-09-20T16:59:21.373Z,4.13
2022-09-20T17:01:48.767Z,2.08
2022-09-20T17:04:18.443Z,2.85
2022-09-20T17:06:45.947Z,3.50
2022-09-20T17:09:13.997Z,2.50
2022-09-20T17:11:45.919Z,1.98
2022-09-20T17:14:13.989Z,3.30
2022-09-20T17:16:42.365Z,2.63
2022-09-20T17:19:13.225Z,4.53
2022-09-20T17:21:43.731Z,4.25
2022-09-20T17:24:10.323Z,3.00
2022-09-20T17:26:40.318Z,2.60
2022-09-20T17:29:09.920Z,5.32
2022-09-20T17:34:07.800Z,1.85
2022-09-20T17:36:39.713Z,3.45
2022-09-20T17:39:10.083Z,3.20
2022-09-20T17:41:37.481Z,2.30
2022-09-20T17:44:12.229Z,1.88
2022-09-20T17:46:40.848Z,3.08
2022-09-20T17:49:11.330Z,3.05
2022-09-20T17:51:47.264Z,3.47
2022-09-20T17:54:14.443Z,3.30
2022-09-20T17:56:43.621Z,4.40
2022-09-20T17:59:11.854Z,4.72
2022-09-20T18:01:40.284Z,1.95
2022-09-20T18:04:08.404Z,1.70
2022-09-20T18:06:37.820Z,6.05
2022-09-20T18:09:07.273Z,2.35
2022-09-20T18:11:38.214Z,5.82
2022-09-20T18:14:06.804Z,7.88
2022-09-20T18:16:35.100Z,2.75
2022-09-20T18:19:01.885Z,2.17
2022-09-20T18:21:31.090Z,2.33
2022-09-20T18:23:58.028Z,3.15
2022-09-20T18:26:30.041Z,2.10
2022-09-20T18:31:37.194Z,3.08
2022-09-20T18:34:06.269Z,3.03
2022-09-20T18:36:36.210Z,2.22
2022-09-20T18:39:03.158Z,2.03
2022-09-20T18:41:33.004Z,2.80
2022-09-20T18:44:00.755Z,4.68
2022-09-20T18:46:30.793Z,3.00
2022-09-20T18:49:00.086Z,3.58
2022-09-20T18:51:29.302Z,2.95
2022-09-20T18:53:57.022Z,1.85
2022-09-20T18:59:06.367Z,2.80
2022-09-20T19:09:43.305Z,2.60
2022-09-20T19:20:42.321Z,3.90
2022-09-20T19:26:24.930Z,4.20
2022-09-20T19:28:55.253Z,1.77
2022-09-20T19:31:26.214Z,2.05
2022-09-20T19:33:54.953Z,2.30
2022-09-20T19:36:23.433Z,3.25
2022-09-20T19:39:19.848Z,1.92
2022-09-20T19:41:59.829Z,1.80
2022-09-20T19:50:15.851Z,4.07
2022-09-20T19:52:44.079Z,2.92
2022-09-20T19:55:12.589Z,2.35
2022-09-20T19:57:43.433Z,3.30
2022-09-20T20:00:15.287Z,6.05
2022-09-20T20:02:44.249Z,4.50
2022-09-20T20:05:13.127Z,5.43
2022-09-20T20:07:49.191Z,3.20
2022-09-20T20:15:53.925Z,3.85
2022-09-20T20:21:24.665Z,12.82
2022-09-20T20:26:28.179Z,2.10
2022-09-20T20:28:54.736Z,2.67
2022-09-20T20:31:21.675Z,3.85
2022-09-20T20:33:48.648Z,2.60
2022-09-20T20:36:19.252Z,2.10
2022-09-20T20:38:50.977Z,2.30
2022-09-20T20:41:21.433Z,2.10
2022-09-20T20:43:51.849Z,2.08
2022-09-20T20:46:19.482Z,3.45
2022-09-20T20:48:47.839Z,3.13
2022-09-20T20:51:17.825Z,2.13
2022-09-20T20:53:49.600Z,5.53
2022-09-20T20:56:20.089Z,6.57
2022-09-20T20:58:47.801Z,12.23
2022-09-20T21:01:17.426Z,22.48
2022-09-20T21:03:47.415Z,9.38
2022-09-20T21:06:15.629Z,10.20
2022-09-20T21:08:48.848Z,7.07
2022-09-20T21:11:23.430Z,6.82
2022-09-20T21:13:51.716Z,5.63
2022-09-20T21:16:21.526Z,10.45
2022-09-20T21:18:49.740Z,7.35
2022-09-20T21:24:04.308Z,5.55
2022-09-20T21:26:32.243Z,3.78
2022-09-20T21:29:01.521Z,3.83
2022-09-20T21:31:31.518Z,3.30
2022-09-20T21:33:58.475Z,6.30
2022-09-20T21:36:29.824Z,4.22
2022-09-20T21:38:56.651Z,5.03
2022-09-20T21:41:25.754Z,3.88
2022-09-20T21:43:55.321Z,6.72
2022-09-20T21:46:25.748Z,5.32
2022-09-20T21:48:52.405Z,3.83
2022-09-20T21:51:20.571Z,2.95
2022-09-20T21:53:49.253Z,4.60
2022-09-20T21:56:17.684Z,3.72
2022-09-20T21:58:45.986Z,4.57
2022-09-20T22:01:15.359Z,3.53
2022-09-20T22:03:44.554Z,5.43
2022-09-20T22:08:58.511Z,4.53
2022-09-20T22:11:29.570Z,4.05
2022-09-20T22:13:56.640Z,5.03
2022-09-20T22:16:28.471Z,5.43
2022-09-20T22:18:56.040Z,5.38
2022-09-20T22:24:01.720Z,5.85
2022-09-20T22:26:32.199Z,4.72
2022-09-20T22:28:59.078Z,6.05
2022-09-20T22:31:28.485Z,5.30
2022-09-20T22:33:57.622Z,4.70
2022-09-20T22:36:29.585Z,4.97
2022-09-20T22:38:56.392Z,5.38
2022-09-20T22:41:23.983Z,5.10
2022-09-20T22:43:50.793Z,7.18
2022-09-20T22:46:21.343Z,5.38
2022-09-20T22:48:48.599Z,9.65
2022-09-20T22:51:17.564Z,7.75
2022-09-20T22:53:45.111Z,7.00
2022-09-20T22:56:14.885Z,7.10
2022-09-20T23:01:12.847Z,7.03
2022-09-20T23:03:41.348Z,6.72
2022-09-20T23:08:52.547Z,7.68
2022-09-20T23:11:20.270Z,5.97
2022-09-20T23:13:47.144Z,6.28
2022-09-20T23:18:50.785Z,6.53
2022-09-20T23:21:18.016Z,6.30
2022-09-20T23:23:45.621Z,6.85
2022-09-20T23:26:16.105Z,6.50
2022-09-20T23:28:46.765Z,6.03
2022-09-20T23:31:16.373Z,6.20
2022-09-20T23:33:47.787Z,5.85
2022-09-20T23:36:15.763Z,5.30
2022-09-20T23:38:42.327Z,5.80
2022-09-20T23:41:12.247Z,6.72
2022-09-20T23:43:39.986Z,4.25
2022-09-20T23:46:07.422Z,4.03
2022-09-20T23:48:36.359Z,4.78
2022-09-20T23:51:04.626Z,5.30
2022-09-20T23:53:31.902Z,6.50
2022-09-20T23:55:58.471Z,5.82
2022-09-20T23:58:25.048Z,4.38
